Time;durP1;ratioP1;P1;durP2;ratioP2;P2;SDS_P1;SDS_P2;PMS_P1;PMS_P2;Temp;Humidity;BMP_temperature;BMP_pressure;BME280_temperature;BME280_humidity;BME280_pressure;Samples;Min_cycle;Max_cycle;Signal;HPM_P1;HPM_P2
2023/05/26 00:01:08;;;;;;;8.45;3.22;;;12.40;99.90;;;;;;6280867;22;20046;-91
2023/05/26 00:03:34;;;;;;;8.85;3.13;;;12.30;99.90;;;;;;6281524;22;20003;-91
2023/05/26 00:06:01;;;;;;;12.45;4.43;;;12.30;99.90;;;;;;6281510;22;20003;-90
2023/05/26 00:08:26;;;;;;;10.05;3.67;;;12.30;99.90;;;;;;6281243;22;20007;-90
2023/05/26 00:10:52;;;;;;;12.05;3.10;;;12.20;99.90;;;;;;6284182;22;20014;-90
2023/05/26 00:13:18;;;;;;;11.05;3.33;;;12.20;99.90;;;;;;6281541;22;19999;-90
2023/05/26 00:15:44;;;;;;;13.25;3.80;;;12.20;99.90;;;;;;6280727;22;20041;-90
2023/05/26 00:18:09;;;;;;;11.50;3.28;;;12.10;99.90;;;;;;6281073;22;20090;-89
2023/05/26 00:20:35;;;;;;;15.10;4.07;;;12.10;99.90;;;;;;6284534;22;20004;-91
2023/05/26 00:23:01;;;;;;;11.40;3.63;;;12.10;99.90;;;;;;6287863;22;20079;-89
2023/05/26 00:25:27;;;;;;;9.75;4.00;;;12.00;99.90;;;;;;6286401;22;20007;-90
2023/05/26 00:27:53;;;;;;;11.82;3.65;;;11.90;99.90;;;;;;6293224;22;20018;-89
2023/05/26 00:30:19;;;;;;;9.52;3.78;;;11.90;99.90;;;;;;6293306;22;20003;-90
2023/05/26 00:32:45;;;;;;;7.97;3.63;;;11.90;99.90;;;;;;6296715;22;20004;-91
2023/05/26 00:35:11;;;;;;;14.25;5.20;;;11.80;99.90;;;;;;6324166;22;20015;-90
2023/05/26 00:37:36;;;;;;;11.57;3.70;;;11.80;99.90;;;;;;6290514;22;20442;-90
2023/05/26 00:40:03;;;;;;;9.68;3.97;;;11.80;99.90;;;;;;6288498;22;20521;-91
2023/05/26 00:42:29;;;;;;;9.85;4.00;;;11.70;99.90;;;;;;6285583;22;20331;-91
2023/05/26 00:44:54;;;;;;;10.85;3.92;;;11.60;99.90;;;;;;6284878;22;20004;-92
2023/05/26 00:47:20;;;;;;;13.85;4.65;;;11.60;99.90;;;;;;6284512;22;19999;-91
2023/05/26 00:49:46;;;;;;;13.88;4.30;;;11.50;99.90;;;;;;6284344;22;20098;-91
2023/05/26 00:52:12;;;;;;;11.02;4.45;;;11.50;99.90;;;;;;6283508;22;20446;-90
2023/05/26 00:54:42;;;;;;;10.10;3.70;;;11.30;99.90;;;;;;6283302;22;20004;-90
2023/05/26 00:57:08;;;;;;;10.15;3.83;;;11.30;99.90;;;;;;6283198;22;20094;-91
2023/05/26 00:59:34;;;;;;;12.93;4.13;;;11.20;99.90;;;;;;6282884;22;19999;-91
2023/05/26 01:02:00;;;;;;;9.25;4.35;;;11.20;99.90;;;;;;6282802;22;20069;-91
2023/05/26 01:04:27;;;;;;;8.85;4.13;;;11.20;99.90;;;;;;6283107;22;20010;-91
2023/05/26 01:06:55;;;;;;;8.95;3.97;;;11.20;99.90;;;;;;6283362;22;20003;-92
2023/05/26 01:09:21;;;;;;;12.05;4.28;;;11.20;99.90;;;;;;6283457;22;20064;-89
2023/05/26 01:11:59;;;;;;;11.43;4.15;;;11.10;99.90;;;;;;6282970;22;20004;-90
2023/05/26 01:15:04;;;;;;;13.55;4.38;;;11.10;99.90;;;;;;6282909;22;20003;-90
2023/05/26 01:17:39;;;;;;;14.25;4.10;;;11.10;99.90;;;;;;6310622;22;20439;-89
2023/05/26 01:20:15;;;;;;;11.43;3.85;;;11.00;99.90;;;;;;6282925;22;20423;-90
2023/05/26 01:22:48;;;;;;;9.25;3.70;;;11.00;99.90;;;;;;6282991;22;20091;-89
2023/05/26 01:25:36;;;;;;;11.43;4.22;;;11.10;99.90;;;;;;6282856;22;20007;-89
2023/05/26 01:28:06;;;;;;;9.13;3.85;;;11.00;99.90;;;;;;6282321;22;20077;-90
2023/05/26 01:30:34;;;;;;;12.27;4.82;;;11.10;99.90;;;;;;6282720;22;20069;-90
2023/05/26 01:33:00;;;;;;;10.63;4.20;;;11.10;99.90;;;;;;6283094;22;19999;-89
2023/05/26 01:35:26;;;;;;;10.82;3.97;;;11.10;99.90;;;;;;6282518;22;20433;-89
2023/05/26 01:37:52;;;;;;;12.57;4.30;;;11.10;99.90;;;;;;6283849;22;20011;-89
2023/05/26 01:40:18;;;;;;;12.30;4.07;;;11.10;99.90;;;;;;6283117;22;20030;-89
2023/05/26 01:43:08;;;;;;;16.13;5.20;;;11.10;99.90;;;;;;6282156;22;19999;-89
2023/05/26 01:45:42;;;;;;;10.30;4.18;;;11.10;99.90;;;;;;6289689;22;20431;-90
2023/05/26 01:48:11;;;;;;;10.27;4.45;;;11.10;99.90;;;;;;6285546;22;19999;-90
2023/05/26 01:50:58;;;;;;;12.15;5.28;;;11.10;99.90;;;;;;6284432;22;20264;-90
2023/05/26 01:53:29;;;;;;;10.23;4.93;;;11.10;99.90;;;;;;6283578;22;20110;-90
2023/05/26 01:55:57;;;;;;;15.05;4.95;;;11.10;99.90;;;;;;6283667;22;20019;-89
2023/05/26 01:58:27;;;;;;;11.82;4.50;;;11.10;99.90;;;;;;6283088;22;20049;-89
2023/05/26 02:00:53;;;;;;;12.18;5.43;;;11.00;99.90;;;;;;6283719;22;20082;-90
2023/05/26 02:03:20;;;;;;;17.38;5.13;;;11.00;99.90;;;;;;6283443;22;19996;-90
2023/05/26 02:05:45;;;;;;;17.60;4.45;;;11.10;99.90;;;;;;6282913;22;20003;-90
2023/05/26 02:08:12;;;;;;;11.48;4.40;;;11.10;99.90;;;;;;6282483;22;20334;-90
2023/05/26 02:10:38;;;;;;;12.80;5.28;;;11.10;99.90;;;;;;6283028;22;20010;-91
2023/05/26 02:13:04;;;;;;;9.90;3.92;;;11.10;99.90;;;;;;6282537;22;20007;-90
2023/05/26 02:15:30;;;;;;;10.80;4.15;;;11.10;99.90;;;;;;6282584;22;20070;-90
2023/05/26 02:17:57;;;;;;;11.50;5.40;;;11.00;99.90;;;;;;6281996;22;20003;-91
2023/05/26 02:20:23;;;;;;;9.00;4.65;;;11.00;99.90;;;;;;6308400;22;20034;-89
2023/05/26 02:22:49;;;;;;;12.43;4.50;;;11.00;99.90;;;;;;6282359;22;19999;-89
2023/05/26 02:25:15;;;;;;;10.68;4.07;;;11.00;99.90;;;;;;6282164;22;20056;-90
2023/05/26 02:27:41;;;;;;;9.32;4.40;;;11.00;99.90;;;;;;6307052;22;20450;-90
2023/05/26 02:30:07;;;;;;;9.52;4.40;;;10.90;99.90;;;;;;6289661;22;20046;-90
2023/05/26 02:32:34;;;;;;;11.82;4.65;;;10.80;99.90;;;;;;6307642;22;20053;-88
2023/05/26 02:35:01;;;;;;;9.40;4.32;;;10.80;99.90;;;;;;6281675;22;20394;-89
2023/05/26 02:37:26;;;;;;;8.18;4.13;;;10.80;99.90;;;;;;6307730;22;20030;-91
2023/05/26 02:39:53;;;;;;;9.95;4.00;;;10.70;99.90;;;;;;6281646;22;20415;-89
2023/05/26 02:42:18;;;;;;;11.48;4.28;;;10.70;99.90;;;;;;6307944;22;20003;-90
2023/05/26 02:44:44;;;;;;;12.40;4.18;;;10.70;99.90;;;;;;6308091;22;20026;-90
2023/05/26 02:47:10;;;;;;;8.68;4.47;;;10.70;99.90;;;;;;6307687;22;20078;-90
2023/05/26 02:49:36;;;;;;;9.60;4.28;;;10.60;99.90;;;;;;6307688;22;20011;-90
2023/05/26 02:52:02;;;;;;;15.23;4.80;;;10.60;99.90;;;;;;6307167;22;20003;-90
2023/05/26 02:54:27;;;;;;;15.10;4.22;;;10.60;99.90;;;;;;6307643;22;20011;-90
2023/05/26 02:56:53;;;;;;;14.55;4.47;;;10.60;99.90;;;;;;6307147;22;20003;-90
2023/05/26 02:59:19;;;;;;;16.20;4.60;;;10.60;99.90;;;;;;6281751;22;20086;-89
2023/05/26 03:01:45;;;;;;;10.07;4.95;;;10.60;99.90;;;;;;6307482;22;20383;-90
2023/05/26 03:04:11;;;;;;;12.27;4.60;;;10.60;99.90;;;;;;6308067;22;20074;-92
2023/05/26 03:06:36;;;;;;;9.93;4.22;;;10.60;99.90;;;;;;6307562;22;20018;-89
2023/05/26 03:09:02;;;;;;;14.07;4.45;;;10.70;99.90;;;;;;6308938;22;19999;-91
2023/05/26 03:11:28;;;;;;;18.38;4.60;;;10.70;99.90;;;;;;6284145;22;20013;-91
2023/05/26 03:13:53;;;;;;;15.13;5.00;;;10.70;99.90;;;;;;6283024;22;20449;-90
2023/05/26 03:16:20;;;;;;;8.65;4.35;;;10.70;99.90;;;;;;6282447;22;20015;-91
2023/05/26 03:18:45;;;;;;;11.23;3.95;;;10.70;99.90;;;;;;6282686;22;20010;-92
2023/05/26 03:21:11;;;;;;;9.85;4.75;;;10.60;99.90;;;;;;6308568;22;20003;-92
2023/05/26 03:23:37;;;;;;;9.35;4.78;;;10.60;99.90;;;;;;6307696;22;19999;-91
2023/05/26 03:26:03;;;;;;;14.95;4.70;;;10.60;99.90;;;;;;6282051;22;20058;-91
2023/05/26 03:28:28;;;;;;;11.48;4.32;;;10.60;99.90;;;;;;6282066;22;20015;-91
2023/05/26 03:30:54;;;;;;;11.07;4.43;;;10.50;99.90;;;;;;6282203;22;20014;-91
2023/05/26 03:33:20;;;;;;;15.93;4.78;;;10.40;99.90;;;;;;6281810;22;20011;-90
2023/05/26 03:35:45;;;;;;;11.10;4.22;;;10.40;99.90;;;;;;6281464;22;20019;-88
2023/05/26 03:38:11;;;;;;;12.23;5.05;;;10.30;99.90;;;;;;6307776;22;20010;-91
2023/05/26 03:40:36;;;;;;;10.10;3.97;;;10.30;99.90;;;;;;6281940;22;20003;-89
2023/05/26 03:43:02;;;;;;;12.70;4.57;;;10.30;99.90;;;;;;6281059;22;19999;-88
2023/05/26 03:45:28;;;;;;;8.73;4.25;;;10.30;99.90;;;;;;6307189;22;20003;-89
2023/05/26 03:47:54;;;;;;;9.48;4.68;;;10.20;99.90;;;;;;6306788;22;20014;-89
2023/05/26 03:50:19;;;;;;;12.73;4.93;;;10.20;99.90;;;;;;6281162;22;20030;-89
2023/05/26 03:52:45;;;;;;;15.88;4.90;;;10.20;99.90;;;;;;6281112;22;20031;-91
2023/05/26 03:55:11;;;;;;;11.55;4.40;;;10.20;99.90;;;;;;6281556;22;20418;-89
2023/05/26 03:57:38;;;;;;;10.32;3.97;;;10.20;99.90;;;;;;6280487;22;20312;-90
2023/05/26 04:00:06;;;;;;;11.88;5.38;;;10.20;99.90;;;;;;6281334;22;20010;-91
2023/05/26 04:02:31;;;;;;;10.18;4.32;;;10.20;99.90;;;;;;6281411;22;20003;-90
2023/05/26 04:04:57;;;;;;;13.38;4.40;;;10.20;99.90;;;;;;6307338;22;20003;-89
2023/05/26 04:07:23;;;;;;;10.13;4.18;;;10.10;99.90;;;;;;6308241;22;20335;-90
2023/05/26 04:09:48;;;;;;;14.82;4.97;;;10.10;99.90;;;;;;6281229;22;20065;-89
2023/05/26 04:12:14;;;;;;;10.15;4.82;;;10.10;99.90;;;;;;6280888;22;20049;-90
2023/05/26 04:14:40;;;;;;;10.80;4.18;;;10.00;99.90;;;;;;6280964;22;20008;-89
2023/05/26 04:17:06;;;;;;;17.58;4.72;;;10.10;99.90;;;;;;6280888;22;20407;-91
2023/05/26 04:19:31;;;;;;;11.43;4.43;;;10.00;99.90;;;;;;6281600;22;20496;-91
2023/05/26 04:21:57;;;;;;;8.77;3.97;;;10.00;99.90;;;;;;6307326;22;20014;-89
2023/05/26 04:24:23;;;;;;;13.30;4.00;;;9.90;99.90;;;;;;6307433;22;20034;-90
2023/05/26 04:26:52;;;;;;;15.13;4.35;;;9.80;99.90;;;;;;6281241;22;20414;-90
2023/05/26 04:29:18;;;;;;;11.85;4.47;;;9.80;99.90;;;;;;6281855;22;20007;-90
2023/05/26 04:31:44;;;;;;;14.48;4.30;;;9.70;99.90;;;;;;6284984;22;20063;-90
2023/05/26 04:34:10;;;;;;;16.23;5.70;;;9.70;99.90;;;;;;6296004;22;20003;-90
2023/05/26 04:36:39;;;;;;;12.77;5.00;;;9.70;99.90;;;;;;6292995;22;20007;-89
2023/05/26 04:39:11;;;;;;;13.05;4.95;;;9.70;99.90;;;;;;6290568;22;20003;-89
2023/05/26 04:41:38;;;;;;;9.35;4.47;;;9.60;99.90;;;;;;6294323;22;20095;-90
2023/05/26 04:44:04;;;;;;;17.42;4.47;;;9.60;99.90;;;;;;6319074;22;20009;-90
2023/05/26 04:46:30;;;;;;;15.30;4.47;;;9.60;99.90;;;;;;6294420;22;20004;-90
2023/05/26 04:48:58;;;;;;;12.27;4.43;;;9.60;99.90;;;;;;6294076;22;20022;-90
2023/05/26 04:51:24;;;;;;;13.48;4.40;;;9.60;99.90;;;;;;6293785;22;20003;-90
2023/05/26 04:53:51;;;;;;;11.65;4.05;;;9.60;99.90;;;;;;6293139;22;20045;-90
2023/05/26 04:56:16;;;;;;;11.68;5.13;;;9.60;99.90;;;;;;6310044;22;20050;-90
2023/05/26 04:58:42;;;;;;;15.50;4.10;;;9.60;99.90;;;;;;6282726;22;20105;-91
2023/05/26 05:01:07;;;;;;;12.43;4.88;;;9.50;99.90;;;;;;6307387;22;20003;-90
2023/05/26 05:03:34;;;;;;;11.90;4.47;;;9.60;99.90;;;;;;6307231;22;20027;-90
2023/05/26 05:05:59;;;;;;;12.88;4.68;;;9.60;99.90;;;;;;6306956;22;20007;-92
2023/05/26 05:08:25;;;;;;;12.90;4.50;;;9.60;99.90;;;;;;6281283;22;20121;-91
2023/05/26 05:10:51;;;;;;;15.38;4.68;;;9.60;99.90;;;;;;6281502;22;20014;-88
2023/05/26 05:13:16;;;;;;;11.32;5.45;;;9.60;99.90;;;;;;6307375;22;20011;-91
2023/05/26 05:15:42;;;;;;;12.85;4.35;;;9.60;99.90;;;;;;6306883;22;20011;-91
2023/05/26 05:18:08;;;;;;;9.57;4.30;;;9.60;99.90;;;;;;6280540;22;20030;-88
2023/05/26 05:20:34;;;;;;;9.05;3.90;;;9.50;99.90;;;;;;6310341;22;20007;-90
2023/05/26 05:23:00;;;;;;;8.70;4.07;;;9.50;99.90;;;;;;6282417;22;20003;-90
2023/05/26 05:25:26;;;;;;;12.52;4.45;;;9.50;99.90;;;;;;6282843;22;20433;-90
2023/05/26 05:27:52;;;;;;;16.77;4.65;;;9.60;99.90;;;;;;6282496;22;20453;-90
2023/05/26 05:30:19;;;;;;;12.00;3.95;;;9.50;99.90;;;;;;6308468;22;20003;-91
2023/05/26 05:32:44;;;;;;;10.75;4.03;;;9.50;99.90;;;;;;6284836;22;20007;-89
2023/05/26 05:35:10;;;;;;;14.80;3.92;;;9.50;99.90;;;;;;6298607;22;20132;-89
2023/05/26 05:37:37;;;;;;;14.30;4.65;;;9.50;99.90;;;;;;6288991;22;20013;-88
2023/05/26 05:40:03;;;;;;;11.88;4.18;;;9.60;99.90;;;;;;6288137;22;20112;-91
2023/05/26 05:42:29;;;;;;;14.45;5.20;;;9.60;99.90;;;;;;6283790;22;20386;-90
2023/05/26 05:44:55;;;;;;;12.75;5.20;;;9.70;99.90;;;;;;6282181;22;20003;-91
2023/05/26 05:47:20;;;;;;;13.40;5.25;;;9.70;99.90;;;;;;6282227;22;19999;-91
2023/05/26 05:49:46;;;;;;;15.43;4.55;;;9.80;99.90;;;;;;6307617;22;20078;-90
2023/05/26 05:52:14;;;;;;;13.70;4.38;;;9.80;99.90;;;;;;6308156;22;20007;-90
2023/05/26 05:54:40;;;;;;;12.05;4.43;;;9.90;99.90;;;;;;6282512;22;20488;-90
2023/05/26 05:57:05;;;;;;;12.82;4.18;;;9.90;99.90;;;;;;6282977;22;20003;-90
2023/05/26 05:59:31;;;;;;;13.27;4.22;;;10.00;99.90;;;;;;6283950;22;20007;-90
2023/05/26 06:01:57;;;;;;;16.23;4.05;;;10.10;99.90;;;;;;6316958;22;20007;-90
2023/05/26 06:04:23;;;;;;;10.68;4.00;;;10.20;99.90;;;;;;6284411;22;20008;-91
2023/05/26 06:06:50;;;;;;;14.95;4.07;;;10.30;99.90;;;;;;6308221;22;20007;-91
2023/05/26 06:09:16;;;;;;;12.13;4.13;;;10.30;99.90;;;;;;6282617;22;20003;-90
2023/05/26 06:11:43;;;;;;;16.55;4.85;;;10.40;99.90;;;;;;6282604;22;20072;-90
2023/05/26 06:14:09;;;;;;;14.73;4.80;;;10.50;99.90;;;;;;6282284;22;20023;-90
2023/05/26 06:16:34;;;;;;;17.58;4.22;;;10.60;99.90;;;;;;6278194;22;20407;-91
2023/05/26 06:19:00;;;;;;;19.13;4.30;;;10.70;99.90;;;;;;6296105;22;20069;-90
2023/05/26 06:21:26;;;;;;;13.18;4.20;;;10.70;99.90;;;;;;6282226;22;20043;-90
2023/05/26 06:23:52;;;;;;;20.60;4.50;;;10.80;99.90;;;;;;6282480;22;20422;-91
2023/05/26 06:26:18;;;;;;;13.63;4.32;;;10.90;99.90;;;;;;6307505;22;20176;-91
2023/05/26 06:28:44;;;;;;;22.42;4.85;;;11.00;99.90;;;;;;6281498;22;20011;-91
2023/05/26 06:31:10;;;;;;;19.20;4.57;;;11.00;99.90;;;;;;6281843;22;20007;-91
2023/05/26 06:33:35;;;;;;;17.25;4.38;;;11.10;99.90;;;;;;6281469;22;20038;-91
2023/05/26 06:36:01;;;;;;;16.95;3.92;;;11.20;99.90;;;;;;6285064;22;20018;-90
2023/05/26 06:38:27;;;;;;;17.30;3.85;;;11.30;99.90;;;;;;6281794;22;20098;-90
2023/05/26 06:40:53;;;;;;;20.65;3.75;;;11.40;99.90;;;;;;6283290;22;20011;-90
2023/05/26 06:43:20;;;;;;;15.63;3.75;;;11.50;99.90;;;;;;6282362;22;19999;-90
2023/05/26 06:45:46;;;;;;;21.30;4.10;;;11.50;99.90;;;;;;6280572;22;20011;-91
2023/05/26 06:48:11;;;;;;;14.20;3.95;;;11.60;99.90;;;;;;6277970;22;20000;-90
2023/05/26 06:50:37;;;;;;;15.38;3.80;;;11.70;99.90;;;;;;6307186;22;20453;-90
2023/05/26 06:53:03;;;;;;;17.95;4.28;;;11.70;99.90;;;;;;6281351;22;20010;-89
2023/05/26 06:55:29;;;;;;;18.15;4.25;;;11.80;99.90;;;;;;6281223;22;20596;-91
2023/05/26 06:57:54;;;;;;;16.85;4.93;;;11.90;99.90;;;;;;6306064;22;20019;-90
2023/05/26 07:00:21;;;;;;;14.38;4.05;;;12.00;99.90;;;;;;6277942;22;20034;-90
2023/05/26 07:02:47;;;;;;;18.17;4.20;;;12.10;99.90;;;;;;6280213;22;20007;-91
2023/05/26 07:05:13;;;;;;;18.92;3.83;;;12.20;99.90;;;;;;6277723;22;20010;-90
2023/05/26 07:07:38;;;;;;;24.85;4.72;;;12.30;99.90;;;;;;6280867;22;20007;-89
2023/05/26 07:10:08;;;;;;;21.20;4.40;;;12.40;99.90;;;;;;6277191;22;20037;-89
2023/05/26 07:12:35;;;;;;;24.48;5.78;;;12.40;99.90;;;;;;6281216;22;20003;-89
2023/05/26 07:15:00;;;;;;;17.40;3.95;;;12.50;99.90;;;;;;6280878;22;20438;-89
2023/05/26 07:17:26;;;;;;;14.70;3.80;;;12.60;99.90;;;;;;6277513;22;20012;-88
2023/05/26 07:19:52;;;;;;;25.50;3.90;;;12.70;99.90;;;;;;6282382;22;20000;-89
2023/05/26 07:22:17;;;;;;;14.63;4.57;;;12.80;99.90;;;;;;6280067;22;20010;-89
2023/05/26 07:24:46;;;;;;;14.48;4.25;;;12.90;99.90;;;;;;6306818;22;20019;-90
2023/05/26 07:27:12;;;;;;;16.77;4.07;;;13.00;99.90;;;;;;6279859;22;20011;-92
2023/05/26 07:29:38;;;;;;;13.52;3.42;;;13.10;99.90;;;;;;6283090;22;20010;-89
2023/05/26 07:32:04;;;;;;;20.90;4.50;;;13.20;99.90;;;;;;6282951;22;20086;-88
2023/05/26 07:34:29;;;;;;;13.38;4.38;;;13.30;99.90;;;;;;6278553;22;20007;-90
2023/05/26 07:36:55;;;;;;;16.65;3.70;;;13.40;99.90;;;;;;6282488;22;20014;-91
2023/05/26 07:39:21;;;;;;;14.30;3.50;;;13.50;99.90;;;;;;6304043;22;20167;-90
2023/05/26 07:41:48;;;;;;;15.13;3.65;;;13.70;99.90;;;;;;6254843;22;20023;-90
2023/05/26 07:44:14;;;;;;;11.68;3.05;;;13.80;99.90;;;;;;6279897;22;20026;-89
2023/05/26 07:46:39;;;;;;;18.80;3.90;;;13.90;99.90;;;;;;6278959;22;20320;-90
2023/05/26 07:49:05;;;;;;;16.50;3.42;;;14.00;99.90;;;;;;6278235;22;20035;-91
2023/05/26 07:51:31;;;;;;;17.27;3.75;;;14.10;99.90;;;;;;6301252;22;20030;-92
2023/05/26 07:53:57;;;;;;;22.30;4.05;;;14.20;99.90;;;;;;6280340;22;20004;-92
2023/05/26 07:56:23;;;;;;;17.45;4.30;;;14.30;99.90;;;;;;6282993;22;20100;-91
2023/05/26 07:58:49;;;;;;;15.07;3.65;;;14.40;99.90;;;;;;6282097;22;20003;-92
2023/05/26 08:01:15;;;;;;;21.25;4.05;;;14.60;99.90;;;;;;6281768;22;20038;-92
2023/05/26 08:03:40;;;;;;;16.80;3.65;;;14.70;99.90;;;;;;6308005;22;19999;-93
2023/05/26 08:06:07;;;;;;;16.55;3.58;;;14.80;99.90;;;;;;6280328;22;20060;-91
2023/05/26 08:08:32;;;;;;;15.90;3.90;;;14.90;99.90;;;;;;6280651;22;20078;-92
2023/05/26 08:10:58;;;;;;;15.90;4.57;;;14.90;99.90;;;;;;6280699;22;20003;-91
2023/05/26 08:13:24;;;;;;;15.98;3.50;;;15.00;99.90;;;;;;6280799;22;20500;-91
2023/05/26 08:15:50;;;;;;;16.08;5.15;;;15.10;99.90;;;;;;6281749;22;20053;-90
2023/05/26 08:18:15;;;;;;;15.38;3.67;;;15.20;99.90;;;;;;6309274;22;20006;-91
2023/05/26 08:20:41;;;;;;;12.02;3.30;;;15.30;99.90;;;;;;6308534;22;20014;-92
2023/05/26 08:23:07;;;;;;;17.65;4.00;;;15.40;99.90;;;;;;6281332;22;20434;-93
2023/05/26 08:25:33;;;;;;;17.15;3.90;;;15.50;99.90;;;;;;6282572;22;20014;-92
2023/05/26 08:28:01;;;;;;;16.42;4.30;;;15.60;99.90;;;;;;6307450;22;20019;-92
2023/05/26 08:30:27;;;;;;;14.80;3.58;;;15.70;99.90;;;;;;6307564;22;20114;-92
2023/05/26 08:32:53;;;;;;;19.42;4.20;;;15.90;99.90;;;;;;6308304;22;20006;-92
2023/05/26 08:35:18;;;;;;;15.07;3.22;;;16.10;99.90;;;;;;6308374;22;20015;-92
2023/05/26 08:37:44;;;;;;;14.43;3.55;;;16.20;99.90;;;;;;6310608;22;20008;-92
2023/05/26 08:40:11;;;;;;;19.48;3.78;;;16.30;99.90;;;;;;6316915;22;20025;-93
2023/05/26 08:42:46;;;;;;;15.55;3.53;;;16.50;99.80;;;;;;6323844;22;20648;-91
2023/05/26 08:45:13;;;;;;;11.18;3.22;;;16.60;98.40;;;;;;6321829;22;20003;-91
2023/05/26 08:47:41;;;;;;;15.32;3.03;;;16.80;97.90;;;;;;6320442;22;20003;-90
2023/05/26 08:50:08;;;;;;;11.65;2.90;;;16.90;97.00;;;;;;6321265;22;20043;-89
2023/05/26 08:52:36;;;;;;;14.90;3.53;;;17.00;96.50;;;;;;6321508;22;20059;-91
2023/05/26 08:55:02;;;;;;;14.60;3.20;;;17.10;95.70;;;;;;6323998;22;20034;-90
2023/05/26 08:57:30;;;;;;;17.30;3.55;;;17.20;95.00;;;;;;6318360;22;20007;-92
2023/05/26 08:59:56;;;;;;;17.35;3.72;;;17.40;94.40;;;;;;6310752;22;20018;-92
2023/05/26 09:02:22;;;;;;;19.13;3.35;;;17.50;93.50;;;;;;6309884;22;19999;-92
2023/05/26 09:04:47;;;;;;;15.18;4.22;;;17.70;92.90;;;;;;6311604;22;20465;-93
2023/05/26 09:07:13;;;;;;;12.95;3.10;;;17.80;92.30;;;;;;6310868;22;20003;-91
2023/05/26 09:09:40;;;;;;;13.52;3.65;;;18.00;91.80;;;;;;6311662;22;19999;-90
2023/05/26 09:12:10;;;;;;;12.82;3.65;;;18.10;91.30;;;;;;6310739;22;20014;-93
2023/05/26 09:14:37;;;;;;;16.20;4.07;;;18.30;90.40;;;;;;6310330;22;20264;-94
2023/05/26 09:17:04;;;;;;;15.05;4.40;;;18.40;90.00;;;;;;6309622;22;20431;-92
2023/05/26 09:19:32;;;;;;;22.10;3.85;;;18.50;88.90;;;;;;6310073;22;20342;-93
2023/05/26 09:22:06;;;;;;;14.65;3.65;;;18.70;87.70;;;;;;6313220;22;20398;-92
2023/05/26 09:24:43;;;;;;;15.80;3.88;;;18.80;86.00;;;;;;6313939;22;20006;-92
2023/05/26 09:27:17;;;;;;;19.98;5.28;;;19.00;85.10;;;;;;6311847;22;20019;-93
2023/05/26 09:29:52;;;;;;;21.08;3.92;;;19.10;84.20;;;;;;6284688;22;20338;-93
2023/05/26 09:32:19;;;;;;;17.83;3.58;;;19.20;82.90;;;;;;6284194;22;20010;-92
2023/05/26 09:34:45;;;;;;;12.82;3.97;;;19.30;82.30;;;;;;6288775;22;20065;-93
2023/05/26 09:37:11;;;;;;;10.38;3.53;;;19.50;81.80;;;;;;6313615;22;20082;-94
2023/05/26 09:39:40;;;;;;;13.57;3.25;;;19.60;80.80;;;;;;6289123;22;20003;-95
2023/05/26 09:42:07;;;;;;;12.43;3.35;;;19.60;79.00;;;;;;6284228;22;20457;-93
2023/05/26 09:44:33;;;;;;;15.73;4.03;;;19.70;78.90;;;;;;6282688;22;20003;-93
2023/05/26 09:46:59;;;;;;;16.80;4.95;;;19.80;78.60;;;;;;6283506;22;20432;-93
2023/05/26 09:49:25;;;;;;;15.00;4.03;;;19.90;78.10;;;;;;6282600;22;20091;-94
2023/05/26 09:51:51;;;;;;;14.77;3.65;;;20.10;77.70;;;;;;6284929;22;20003;-95
2023/05/26 09:54:17;;;;;;;9.18;4.15;;;20.30;77.00;;;;;;6284002;22;20097;-94
2023/05/26 09:56:52;;;;;;;10.20;3.50;;;20.50;76.40;;;;;;6282825;22;20007;-94
2023/05/26 09:59:20;;;;;;;16.30;4.93;;;20.60;75.70;;;;;;6282683;22;20003;-93
2023/05/26 10:01:46;;;;;;;14.88;4.43;;;20.80;75.40;;;;;;6281984;22;20082;-93
2023/05/26 10:04:15;;;;;;;10.10;3.53;;;20.90;75.00;;;;;;6310146;22;20061;-93
2023/05/26 10:06:43;;;;;;;13.85;3.40;;;21.10;74.30;;;;;;6282872;22;20008;-92
2023/05/26 10:09:10;;;;;;;12.23;3.70;;;21.10;73.50;;;;;;6308410;22;19999;-93
2023/05/26 10:11:45;;;;;;;14.23;3.53;;;21.30;73.50;;;;;;6285700;22;20057;-94
2023/05/26 10:14:11;;;;;;;18.83;4.22;;;21.50;72.50;;;;;;6284477;22;20003;-94
2023/05/26 10:16:38;;;;;;;13.70;4.10;;;21.60;72.00;;;;;;6282721;22;20267;-95
2023/05/26 10:19:05;;;;;;;15.40;4.35;;;21.70;71.20;;;;;;6284466;22;20000;-92
2023/05/26 10:21:36;;;;;;;12.05;3.65;;;21.90;71.20;;;;;;6309569;22;20010;-94
2023/05/26 10:24:25;;;;;;;14.38;4.15;;;22.20;70.40;;;;;;6283236;22;19995;-94
2023/05/26 10:27:06;;;;;;;13.77;3.72;;;22.30;69.40;;;;;;6282946;22;20046;-94
2023/05/26 10:29:46;;;;;;;18.23;4.05;;;22.50;68.90;;;;;;6308910;22;20490;-94
2023/05/26 10:32:49;;;;;;;14.27;3.63;;;22.60;68.50;;;;;;6282517;22;20082;-93
2023/05/26 10:35:26;;;;;;;13.90;3.58;;;22.70;67.80;;;;;;6283364;22;20261;-94
2023/05/26 10:38:02;;;;;;;14.82;4.03;;;22.80;67.40;;;;;;6305589;22;20089;-95
2023/05/26 10:40:37;;;;;;;12.32;3.92;;;22.90;67.10;;;;;;6282859;22;20082;-96
2023/05/26 10:43:21;;;;;;;13.35;3.58;;;23.00;66.60;;;;;;6282775;22;20030;-94
2023/05/26 10:45:53;;;;;;;10.02;3.30;;;23.00;66.20;;;;;;6311141;22;20456;-95
2023/05/26 10:48:19;;;;;;;14.00;4.10;;;23.00;66.30;;;;;;6310091;22;20643;-94
2023/05/26 10:50:54;;;;;;;12.68;3.42;;;23.20;66.00;;;;;;6282939;22;20037;-94
2023/05/26 10:53:25;;;;;;;15.55;3.70;;;23.30;65.40;;;;;;6282540;22;20133;-92
2023/05/26 10:55:58;;;;;;;;;;;23.30;64.70;;;;;;6282579;22;20026;-95
2023/05/26 10:58:31;;;;;;;11.63;3.40;;;23.40;64.90;;;;;;6307917;22;19925;-94
2023/05/26 11:01:02;;;;;;;13.13;3.45;;;23.50;64.30;;;;;;6283998;22;20082;-95
2023/05/26 11:03:45;;;;;;;10.05;3.47;;;23.60;64.00;;;;;;6283649;22;19999;-94
2023/05/26 11:06:13;;;;;;;8.48;3.33;;;23.70;63.40;;;;;;6309717;22;20049;-94
2023/05/26 11:08:40;;;;;;;11.32;3.35;;;23.80;63.40;;;;;;6308185;22;20431;-94
2023/05/26 11:11:09;;;;;;;7.80;2.97;;;23.80;63.50;;;;;;6282726;22;20010;-92
2023/05/26 11:13:41;;;;;;;10.02;3.72;;;23.80;63.20;;;;;;6304823;22;20007;-92
2023/05/26 11:16:25;;;;;;;14.32;3.35;;;23.80;62.80;;;;;;6279451;22;20019;-92
2023/05/26 11:18:57;;;;;;;11.90;2.92;;;23.70;62.90;;;;;;6307961;22;20030;-92
2023/05/26 11:21:34;;;;;;;11.63;3.42;;;23.70;63.20;;;;;;6283317;22;20042;-91
2023/05/26 11:24:02;;;;;;;10.80;2.95;;;23.60;63.20;;;;;;6281474;22;20442;-92
2023/05/26 11:26:32;;;;;;;9.68;3.03;;;23.50;63.20;;;;;;6306992;22;20078;-92
2023/05/26 11:29:05;;;;;;;11.50;3.60;;;23.30;63.10;;;;;;6306326;22;20003;-92
2023/05/26 11:31:32;;;;;;;15.27;3.97;;;23.00;62.60;;;;;;6310595;22;20011;-92
2023/05/26 11:33:58;;;;;;;8.95;3.67;;;22.70;63.40;;;;;;6282329;22;19999;-93
2023/05/26 11:36:24;;;;;;;12.32;3.28;;;22.50;64.10;;;;;;6286416;22;20023;-90
2023/05/26 11:38:54;;;;;;;12.55;4.03;;;22.40;64.40;;;;;;6295856;22;20311;-90
2023/05/26 11:41:24;;;;;;;9.77;3.85;;;22.40;64.50;;;;;;6283701;22;20014;-91
2023/05/26 11:43:49;;;;;;;9.10;3.50;;;22.40;64.50;;;;;;6306013;22;20007;-94
2023/05/26 11:46:16;;;;;;;13.07;3.72;;;22.50;64.40;;;;;;6283576;22;20335;-91
2023/05/26 11:48:43;;;;;;;12.57;3.70;;;22.60;64.30;;;;;;6310414;22;20003;-93
2023/05/26 11:51:11;;;;;;;11.25;3.50;;;22.60;63.80;;;;;;6281709;22;20011;-95
2023/05/26 11:53:38;;;;;;;13.25;3.88;;;22.70;63.40;;;;;;6282962;22;20077;-96
2023/05/26 11:56:09;;;;;;;12.10;3.22;;;22.80;63.30;;;;;;6289080;22;20026;-94
2023/05/26 11:58:41;;;;;;;11.68;3.53;;;22.80;63.30;;;;;;6310093;22;19999;-95
2023/05/26 12:01:09;;;;;;;8.70;3.00;;;22.60;64.20;;;;;;6281107;22;20026;-94
2023/05/26 12:03:41;;;;;;;12.45;3.20;;;22.60;63.90;;;;;;6282548;22;20050;-95
2023/05/26 12:06:14;;;;;;;12.77;3.63;;;22.60;64.40;;;;;;6286106;22;20038;-93
2023/05/26 12:09:02;;;;;;;10.93;3.00;;;22.70;65.10;;;;;;6282325;22;20000;-93
2023/05/26 12:11:32;;;;;;;9.52;3.50;;;22.90;64.40;;;;;;6281889;22;20027;-95
2023/05/26 12:13:59;;;;;;;;;;;23.20;63.60;;;;;;6282115;22;20004;-95
2023/05/26 12:16:32;;;;;;;7.75;2.88;;;23.40;62.90;;;;;;6281718;22;19910;-93
2023/05/26 12:19:02;;;;;;;7.93;3.03;;;23.60;62.20;;;;;;6308122;22;20064;-95
2023/05/26 12:21:30;;;;;;;8.15;2.85;;;23.80;61.70;;;;;;6283004;22;20019;-96
2023/05/26 12:23:56;;;;;;;12.20;3.88;;;24.00;61.70;;;;;;6283165;22;20061;-94
2023/05/26 12:26:29;;;;;;;11.93;2.90;;;24.10;61.30;;;;;;6283629;22;20078;-93
2023/05/26 12:29:13;;;;;;;12.25;2.88;;;24.00;61.20;;;;;;6286841;22;20021;-95
2023/05/26 12:31:40;;;;;;;9.80;3.17;;;23.80;60.80;;;;;;6297708;22;19999;-91
2023/05/26 12:34:10;;;;;;;12.27;3.75;;;23.70;61.10;;;;;;6318800;22;20094;-88
2023/05/26 12:36:36;;;;;;;11.10;3.33;;;23.60;61.00;;;;;;6317150;22;20083;-90
2023/05/26 12:39:03;;;;;;;14.27;3.53;;;23.60;61.20;;;;;;6315178;22;20007;-91
2023/05/26 12:41:29;;;;;;;8.63;3.05;;;23.60;61.10;;;;;;6291635;22;20031;-91
2023/05/26 12:43:55;;;;;;;7.18;3.08;;;23.60;61.80;;;;;;6298930;22;20003;-90